Aviation Digital Data Service (ADDS)

Output produced by METARs form (2326 UTC 17 January 2017)
found at http://www.aviationweather.gov/adds/metars/
 
KFIG 172317Z AUTO 03007KT 3/4SM -RA BR BKN004 BKN028 OVC038 04/04 A2987 RMK AO2 P0009 T00390039
KFIG 172254Z AUTO 36008KT 3/4SM -RA BR VV002 04/04 A2987 RMK AO2 RAE00B45 SLP126 P0001 T00390039
KFIG 172252Z AUTO 36008KT 1/2SM RA FG VV002 04/04 A2986 RMK AO2 RAE00B45 P0001
KFIG 172227Z AUTO 03004KT 3/4SM BR VV003 04/04 A2986 RMK AO2 RAE00 P0000 T00390039
KFIG 172215Z AUTO 01005KT 1 1/4SM BR OVC003 04/04 A2986 RMK AO2 RAE00 P0000 T00390039
KFIG 172204Z AUTO 04005KT 1SM BR OVC002 04/04 A2986 RMK AO2 RAE00 P0000 T00390039
KFIG 172154Z AUTO 02005KT 1/2SM -RA FG OVC003 04/04 A2986 RMK AO2 RAB43 SLP125 P0000 T00390039
KFIG 172134Z AUTO 02006KT 1/2SM FG OVC004 04/04 A2986 RMK AO2 T00390039
KFIG 172122Z AUTO 03006KT 1 1/4SM BR OVC004 04/04 A2986 RMK AO2 T00440044
KFIG 172102Z AUTO 02006KT 1 1/4SM BR BKN002 OVC006 04/04 A2986 RMK AO2 T00440044
KFIG 172054Z AUTO 03007KT 3/4SM BR OVC004 04/04 A2986 RMK AO2 SLP124 60001 T00440044 56016
KFIG 172013Z AUTO 02005KT 1 1/2SM BR OVC004 04/04 A2986 RMK AO2 T00440044
KFIG 172006Z AUTO 03006KT 1SM BR BKN002 OVC006 04/04 A2987 RMK AO2 T00440044
KFIG 171954Z AUTO 02005KT 3/4SM BR OVC005 04/04 A2987 RMK AO2 SLP126 T00440044
KFIG 171938Z AUTO 01005KT 1SM BR VV005 04/04 A2987 RMK AO2 T00390039
KFIG 171930Z AUTO 01006KT 1/2SM FG VV004 04/04 A2987 RMK AO2 T00390039
KFIG 171854Z AUTO 36007KT 1/4SM FG BKN003 OVC007 03/03 A2988 RMK AO2 RAB41E53 SLP132 P0001 T00330033
KFIG 171842Z AUTO 03005KT 1/2SM -RA FG VV004 03/03 A2988 RMK AO2 RAB41 P0001 T00330033
KFIG 171826Z AUTO 01005KT 1/4SM FG VV003 03/03 A2990 RMK AO2 T00330033
KFIG 171811Z AUTO 02006KT 1/2SM FG VV004 03/03 A2991 RMK AO2 T00280028
KFIG 171754Z AUTO 01007KT 1/4SM FG VV004 03/03 A2991 RMK AO2 RAB17E27 SLP142 P0000 60008 T00280028 10028 20006 58037
KFIG 171734Z AUTO 02005KT 1/4SM FG VV004 03/03 A2992 RMK AO2 RAB17E27 P0000 T00280028
KFIG 171725Z AUTO 02005KT 1/2SM -RA FG VV004 03/03 A2993 RMK AO2 RAB17 P0000 T00280028
KFIG 171654Z AUTO 04006KT 1/4SM FG VV004 02/02 A2995 RMK AO2 RAE47 PRESFR SLP155 P0002 T00220022
KFIG 171627Z AUTO 04006KT 1/2SM -RA FG VV006 02/02 A2998 RMK AO2 PRESFR P0002 T00170017
KFIG 171620Z AUTO 02005KT 1/4SM RA FG VV004 02/02 A2999 RMK AO2 P0002 T00170017
KFIG 171611Z AUTO 01005KT 3/4SM -RA BR OVC005 02/02 A3000 RMK AO2 P0000 T00170017
KFIG 171554Z AUTO 02006KT 3/4SM -RA BR OVC003 02/02 A3001 RMK AO2 RAB01E31B40 SLP175 P0001 T00170017
KFIG 171537Z AUTO 36005KT 1/2SM FG VV003 01/01 A3002 RMK AO2 RAB01E31 P0000 T00110011
KFIG 171518Z AUTO 01005KT 1/4SM -RA FG VV004 01/01 A3001 RMK AO2 RAB01 P0000 T00110011
KFIG 171511Z AUTO 02006KT 1/2SM -RA FG OVC003 01/01 A3002 RMK AO2 RAB01 P0000 T00110011
KFIG 171454Z AUTO 03006KT 1SM BR OVC003 01/01 A3003 RMK AO2 RAE06B23E52 SLP182 P0002 60005 T00110011 56011
KFIG 171451Z AUTO 03007KT 3/4SM -RA BR OVC003 01/01 A3003 RMK AO2 RAE06B23 P0002
KFIG 171443Z AUTO 04007KT 1SM -RA BR BKN003 BKN008 OVC030 01/01 A3003 RMK AO2 RAE06B23 P0002 T00110006
KFIG 171411Z AUTO 05009KT 1 1/4SM BR SCT004 BKN007 OVC030 01/01 A3004 RMK AO2 RAE06 P0000 T00110006
KFIG 171403Z AUTO 04008KT 1 1/4SM -RA BR BKN004 OVC031 01/01 A3005 RMK AO2 P0000 T00110006
KFIG 171354Z AUTO 04008KT 1 1/4SM -RA BR BKN005 BKN023 OVC031 01/01 A3004 RMK AO2 RAB08 SLP188 P0003 T00110006
KFIG 171316Z AUTO 03007KT 1 3/4SM -RA BR OVC006 01/01 A3006 RMK AO2 RAB08 CIG 002V009 P0001 T00060006
KFIG 171307Z AUTO 02005KT 1 1/2SM BR BKN003 OVC007 01/01 A3007 RMK AO2 T00060006
KFIG 171254Z AUTO 03006KT 2SM BR OVC007 01/01 A3006 RMK AO2 RAE04B28E50 CIG 003V009 SLP193 P0000 T00060006
KFIG 171252Z AUTO 03007KT 2SM BR FEW003 OVC007 01/01 A3006 RMK AO2 RAE04B28E50 P0000
KFIG 171238Z AUTO 04007KT 3SM -RA BR OVC007 01/01 A3006 RMK AO2 RAE04B28 P0000 T00060006
KFIG 171227Z AUTO 03006KT 1 3/4SM BR OVC007 01/01 A3006 RMK AO2 RAE04 P0000 T00060006
KFIG 171210Z AUTO 04006KT 3SM BR OVC006 01/01 A3007 RMK AO2 RAE04 P0000 T00060006
KFIG 171154Z AUTO 03006KT 2SM -RA BR OVC007 01/01 A3007 RMK AO2 RAB1059 SLP198 P0001 60004 70004 T00060006 10011 20006 58022
KFIG 171147Z AUTO 03006KT 2SM -RA BR OVC007 01/01 A3007 RMK AO2 RAB1059 P0001 T00060006
KFIG 171054Z AUTO 03006KT 4SM BR OVC007 01/00 A3010 RMK AO2 RAE15B34E35UPB22E34 SLP206 P0002 T00060000
KFIG 170954Z AUTO 03005KT 5SM -RA BR OVC007 01/00 A3012 RMK AO2 RAB10E29B52 SLP214 P0001 T00060000
KFIG 170854Z AUTO 03005KT 10SM OVC008 01/M01 A3014 RMK AO2 SLP220 60000 T00111006 58011
KFIG 170754Z AUTO 01005KT 10SM OVC006 01/M01 A3015 RMK AO2 SLP225 T00061011
KFIG 170654Z AUTO 03005KT 10SM OVC007 01/M01 A3016 RMK AO2 RAB30E46 SLP228 P0000 T00061011
KFIG 170554Z AUTO 07004KT 10SM OVC008 01/M02 A3017 RMK AO2 SLP232 T00111017 10017 20011 58018
KFIG 170535Z AUTO 02004KT 10SM OVC009 01/M02 A3018 RMK AO2 T00111022
KFIG 170454Z AUTO 03004KT 10SM OVC012 01/M02 A3019 RMK AO2 SLP241 T00111022 400221106
KFIG 170435Z AUTO 03003KT 10SM OVC012 01/M02 A3019 RMK AO2 T00111022
KFIG 170416Z AUTO 01003KT 10SM OVC015 01/M02 A3021 RMK AO2 T00111022
KFIG 170354Z AUTO 02003KT 10SM OVC014 01/M02 A3021 RMK AO2 SLP248 T00111022
KFIG 170343Z AUTO 02003KT 10SM BKN012 OVC017 01/M02 A3021 RMK AO2 T00111022
KFIG 170254Z AUTO 05003KT 10SM OVC017 01/M02 A3023 RMK AO2 SLP256 T00111022 58007
KFIG 170154Z AUTO 01003KT 10SM OVC021 01/M02 A3025 RMK AO2 SLP263 T00111022
KFIG 170111Z AUTO 03003KT 10SM OVC027 01/M02 A3025 RMK AO2 T00111022
KFIG 170054Z AUTO 00000KT 10SM OVC030 02/M03 A3025 RMK AO2 SLP265 T00171028
KFIG 162354Z AUTO 06005KT 10SM BKN041 OVC049 02/M03 A3025 RMK AO2 SLP266 T00171028 10022 20011 58004
KFIG 162254Z AUTO 02003KT 10SM OVC045 02/M03 A3027 RMK AO2 SLP271 T00221028
KFIG 162154Z AUTO 00000KT 10SM SCT050 OVC070 02/M03 A3027 RMK AO2 SLP271 T00221028
KFIG 162054Z AUTO 04004KT 10SM OVC075 02/M03 A3026 RMK AO2 SLP269 T00221033 56010
KFIG 161954Z AUTO 04004KT 10SM BKN080 OVC095 02/M03 A3027 RMK AO2 SLP269 T00221033
KFIG 161854Z AUTO 00000KT 10SM OVC090 02/M04 A3028 RMK AO2 SLP273 T00171039
KFIG 161754Z AUTO 00000KT 10SM BKN110 01/M04 A3030 RMK AO2 SLP279 T00111044 10011 21106 58024
KFIG 161654Z AUTO 00000KT 10SM CLR M02/M04 A3033 RMK AO2 SLP292 T10171044
KFIG 161554Z AUTO 03003KT 10SM CLR M04/M06 A3037 RMK AO2 SLP306 T10391061
KFIG 161454Z AUTO 05003KT 10SM CLR M06/M07 A3037 RMK AO2 SLP308 T10611072 53003
KFIG 161354Z AUTO 03003KT 10SM CLR M08/M09 A3037 RMK AO2 SLP308 T10781094
KFIG 161254Z AUTO 00000KT 10SM CLR M09/M11 A3036 RMK AO2 SLP305 T10941111
KFIG 161154Z AUTO 00000KT 10SM CLR M09/M11 A3036 RMK AO2 SLP305 I1000 I6000 T10941111 11067 21100 53004